Matsushiro, Japan

3:16 PM JST on August 31, 2014 (GMT +0900)
Matsumoto | Change Station
CLOSE
Current Station
Airport
Location: Matsumoto Airport,
Elevation: 2165 ft
Nearby Weather Stations

Elev 2165 ft 36.17 °N, 137.92 °E | Updated 16 minutes ago

Mostly Cloudy
Mostly Cloudy
75 °F
Feels Like 75 °F
N
13
Wind Variable Wind from NNW

Today
High -- | Low -- °F
--% Chance of Precip.
Yesterday
High -- | Low -- °F
Precip. -- in
5:17 AM 6:17 PM
Waxing Crescent, 28% visible
Pressure 29.92 in
Visibility 6.2 miles
Clouds Few 3000 ft
Scattered Clouds 5000 ft
Few 5000 ft
Mostly Cloudy 7000 ft
Dew Point 63 °F
Humidity 65%
Rainfall 0.00 in
Snow Depth Not available.
UV 3 out of 12
Pollen Not available.
Air Quality Not available.
Flu Activity Not available.
METAR RJAF 310600Z 34011KT 9999 VCSH FEW030 SCT050 FEW050TCU BKN070 24/17 Q1013

More Conditions Fewer Conditions

Pressure 29.92 in
Visibility 6.2 miles
Clouds Few 3000 ft
Scattered Clouds 5000 ft
Few 5000 ft
Mostly Cloudy 7000 ft
Dew Point 63 °F
Humidity 65%
Rainfall 0.00 in
Snow Depth Not available.
UV 3 out of 12
Pollen Not available.
Air Quality Not available.
Flu Activity Not available.
METAR RJAF 310600Z 34011KT 9999 VCSH FEW030 SCT050 FEW050TCU BKN070 24/17 Q1013

More Conditions Fewer Conditions

10-Day Weather Forecast

Almanac

Astronomy

Aug. 31, 2014 Rise Set
Actual Time 5:17 AM JST 6:17 PM JST
Civil Twilight 4:50 AM JST 6:43 PM JST
Nautical Twilight 4:19 AM JST 7:15 PM JST
Astronomical Twilight 3:46 AM JST 7:47 PM JST
Moon 10:16 AM JST 9:15 PM JST
Length of Visible Light 13h 53m
Length of Day
13h 00m
Tomorrow will be 2m 13s shorter.
Waxing Crescent, 28% of the Moon is Illuminated
Today
Waxing Crescent
Sep 2
First Quarter
Sep 8
Full
Sep 15
Last Quarter
Sep 24
New

Yesterday's Extremes

Country Highs Country Lows

Community

WunderPhotos

Upload Photos

1,748,801 photos uploaded!

Nearby

Snow Depth

Not available.

Earthquake Activity

City Distance Mag. Time & Date
No recent earthquake activity has been reported nearby.
Minimum magnitude displayed is 2.5.

Coastal Water Temperatures

Place Temperature
No Stations Reporting

Nearby Weather Stations